Time;durP1;ratioP1;P1;durP2;ratioP2;P2;SDS_P1;SDS_P2;PMS_P1;PMS_P2;Temp;Humidity;BMP_temperature;BMP_pressure;BME280_temperature;BME280_humidity;BME280_pressure;Samples;Min_cycle;Max_cycle;Signal;HPM_P1;HPM_P2
2023/12/01 00:00:45;;;;;;;40.20;33.05;;;;;;;;;;5027747;28;20183;-44
2023/12/01 00:03:11;;;;;;;16.23;14.57;;;;;;;;;;5019730;28;20168;-43
2023/12/01 00:05:37;;;;;;;18.60;16.70;;;;;;;;;;5027515;28;20333;-43
2023/12/01 00:08:03;;;;;;;16.30;14.17;;;;;;;;;;5021003;28;20483;-43
2023/12/01 00:10:29;;;;;;;51.83;36.90;;;;;;;;;;5022971;28;20457;-43
2023/12/01 00:12:55;;;;;;;55.83;35.97;;;;;;;;;;5023034;28;20172;-43
2023/12/01 00:15:21;;;;;;;71.37;38.77;;;;;;;;;;5024578;28;20402;-43
2023/12/01 00:17:47;;;;;;;78.40;39.93;;;;;;;;;;5028406;28;20433;-43
2023/12/01 00:20:13;;;;;;;71.22;39.40;;;;;;;;;;5020881;28;20411;-43
2023/12/01 00:22:38;;;;;;;56.88;36.47;;;;;;;;;;5024422;28;20256;-43
2023/12/01 00:25:05;;;;;;;64.90;37.40;;;;;;;;;;5024317;28;20646;-43
2023/12/01 00:27:31;;;;;;;64.07;37.33;;;;;;;;;;5022511;28;20787;-43
2023/12/01 00:29:57;;;;;;;94.67;41.13;;;;;;;;;;5022720;28;20199;-43
2023/12/01 00:32:23;;;;;;;110.37;43.93;;;;;;;;;;5023697;28;20929;-43
2023/12/01 00:34:49;;;;;;;105.03;44.42;;;;;;;;;;5005081;28;20817;-43
2023/12/01 00:37:16;;;;;;;113.13;45.30;;;;;;;;;;5028011;28;20266;-43
2023/12/01 00:39:42;;;;;;;72.50;46.03;;;;;;;;;;5031049;28;20403;-43
2023/12/01 00:42:09;;;;;;;40.90;36.60;;;;;;;;;;5021877;28;20418;-43
2023/12/01 00:44:35;;;;;;;35.88;32.25;;;;;;;;;;5018162;28;20414;-43
2023/12/01 00:47:01;;;;;;;50.07;38.67;;;;;;;;;;5027272;28;20606;-43
2023/12/01 00:49:27;;;;;;;42.63;35.13;;;;;;;;;;5025975;28;20771;-43
2023/12/01 00:51:53;;;;;;;53.47;32.03;;;;;;;;;;5026242;28;20399;-44
2023/12/01 00:54:19;;;;;;;64.53;37.50;;;;;;;;;;5022966;28;20528;-43
2023/12/01 00:56:45;;;;;;;57.45;37.33;;;;;;;;;;5024253;28;20445;-43
2023/12/01 00:59:11;;;;;;;62.25;38.75;;;;;;;;;;5028092;28;20191;-42
2023/12/01 01:01:37;;;;;;;57.17;35.90;;;;;;;;;;5026176;28;20175;-43
2023/12/01 01:04:03;;;;;;;15.43;13.67;;;;;;;;;;5027508;28;20497;-43
2023/12/01 01:06:29;;;;;;;15.65;14.00;;;;;;;;;;5031383;28;20414;-43
2023/12/01 01:08:55;;;;;;;15.55;13.95;;;;;;;;;;5014256;28;20192;-43
2023/12/01 01:11:21;;;;;;;20.37;18.33;;;;;;;;;;5032458;28;20199;-43
2023/12/01 01:13:47;;;;;;;16.57;14.87;;;;;;;;;;5019717;28;20900;-43
2023/12/01 01:16:13;;;;;;;28.60;21.93;;;;;;;;;;5023969;28;20922;-43
2023/12/01 01:18:39;;;;;;;81.88;41.08;;;;;;;;;;5027652;28;20837;-42
2023/12/01 01:21:05;;;;;;;114.13;45.47;;;;;;;;;;5016018;28;20169;-43
2023/12/01 01:23:31;;;;;;;58.30;38.22;;;;;;;;;;5018000;28;20235;-43
2023/12/01 01:25:57;;;;;;;13.75;12.32;;;;;;;;;;5031476;28;20201;-42
2023/12/01 01:28:23;;;;;;;15.63;14.10;;;;;;;;;;5019722;28;20283;-43
2023/12/01 01:30:49;;;;;;;28.53;25.70;;;;;;;;;;5023342;28;20206;-43
2023/12/01 01:33:15;;;;;;;53.05;35.30;;;;;;;;;;5028022;28;20988;-43
2023/12/01 01:35:41;;;;;;;76.50;42.83;;;;;;;;;;5014749;28;20248;-43
2023/12/01 01:38:07;;;;;;;65.93;38.63;;;;;;;;;;5033550;28;20421;-43
2023/12/01 01:40:33;;;;;;;39.25;30.23;;;;;;;;;;5016213;28;20179;-43
2023/12/01 01:42:59;;;;;;;13.47;11.43;;;;;;;;;;5026832;28;20183;-43
2023/12/01 01:45:25;;;;;;;23.95;20.90;;;;;;;;;;5024005;28;20502;-43
2023/12/01 01:47:52;;;;;;;13.83;12.43;;;;;;;;;;5012501;28;20279;-43
2023/12/01 01:50:22;;;;;;;16.33;14.82;;;;;;;;;;5012334;28;20450;-44
2023/12/01 01:52:48;;;;;;;31.63;28.45;;;;;;;;;;4994308;28;20523;-43
2023/12/01 01:55:14;;;;;;;31.00;27.85;;;;;;;;;;5011145;28;20199;-43
2023/12/01 01:57:45;;;;;;;15.80;14.27;;;;;;;;;;4999714;28;20677;-43
2023/12/01 02:00:16;;;;;;;17.80;16.15;;;;;;;;;;5003412;28;20414;-43
2023/12/01 02:02:42;;;;;;;17.02;15.43;;;;;;;;;;5006287;28;20668;-43
2023/12/01 02:05:13;;;;;;;15.93;14.43;;;;;;;;;;4995707;28;20614;-43
2023/12/01 02:07:39;;;;;;;28.08;25.08;;;;;;;;;;5012577;28;20287;-43
2023/12/01 02:10:06;;;;;;;16.92;15.32;;;;;;;;;;4994075;28;20676;-43
2023/12/01 02:12:32;;;;;;;24.00;20.70;;;;;;;;;;5008204;28;20443;-44
2023/12/01 02:14:58;;;;;;;32.13;28.15;;;;;;;;;;5002101;28;20669;-44
2023/12/01 02:17:24;;;;;;;20.95;19.00;;;;;;;;;;4999758;28;20739;-43
2023/12/01 02:19:53;;;;;;;25.43;22.83;;;;;;;;;;5010295;28;20191;-43
2023/12/01 02:22:19;;;;;;;25.23;22.65;;;;;;;;;;4999415;28;20403;-43
2023/12/01 02:24:45;;;;;;;41.80;37.25;;;;;;;;;;5012482;28;20187;-44
2023/12/01 02:27:11;;;;;;;20.30;18.50;;;;;;;;;;4997645;28;20185;-43
2023/12/01 02:29:37;;;;;;;13.60;12.17;;;;;;;;;;5003561;28;20513;-43
2023/12/01 02:32:03;;;;;;;17.10;15.33;;;;;;;;;;5006306;28;20456;-43
2023/12/01 02:34:29;;;;;;;12.57;11.10;;;;;;;;;;4995580;28;20420;-43
2023/12/01 02:36:58;;;;;;;64.40;40.40;;;;;;;;;;5012952;28;20188;-43
2023/12/01 02:39:24;;;;;;;70.85;42.63;;;;;;;;;;4993887;28;20404;-43
2023/12/01 02:41:51;;;;;;;73.85;42.42;;;;;;;;;;5007368;28;20180;-43
2023/12/01 02:44:16;;;;;;;46.17;32.70;;;;;;;;;;5001914;28;20180;-44
2023/12/01 02:46:42;;;;;;;52.30;32.33;;;;;;;;;;4999107;28;20796;-43
2023/12/01 02:49:08;;;;;;;58.03;40.20;;;;;;;;;;5009828;28;20430;-43
2023/12/01 02:51:34;;;;;;;67.03;42.20;;;;;;;;;;4992853;28;20817;-43
2023/12/01 02:54:00;;;;;;;56.28;34.80;;;;;;;;;;5010996;28;20501;-43
2023/12/01 02:56:26;;;;;;;60.10;43.17;;;;;;;;;;4997902;28;20228;-43
2023/12/01 02:58:52;;;;;;;66.40;41.60;;;;;;;;;;5002437;28;20419;-43
2023/12/01 03:01:18;;;;;;;48.47;34.27;;;;;;;;;;5006320;28;20576;-44
2023/12/01 03:03:44;;;;;;;89.90;44.23;;;;;;;;;;4994468;28;20808;-44
2023/12/01 03:06:10;;;;;;;89.45;44.75;;;;;;;;;;5012110;28;20403;-44
2023/12/01 03:08:36;;;;;;;63.70;41.55;;;;;;;;;;4994391;28;20271;-44
2023/12/01 03:11:06;;;;;;;66.00;40.77;;;;;;;;;;5005781;28;20294;-43
2023/12/01 03:13:32;;;;;;;63.92;40.45;;;;;;;;;;5002032;28;20412;-43
2023/12/01 03:15:58;;;;;;;85.67;37.70;;;;;;;;;;4998129;28;20542;-43
2023/12/01 03:18:24;;;;;;;127.55;47.25;;;;;;;;;;5010017;28;20419;-43
2023/12/01 03:20:50;;;;;;;86.60;44.60;;;;;;;;;;4992432;28;20180;-43
2023/12/01 03:23:16;;;;;;;57.40;39.17;;;;;;;;;;5009722;28;20961;-43
2023/12/01 03:25:42;;;;;;;35.47;31.20;;;;;;;;;;5011197;28;20227;-44
2023/12/01 03:28:08;;;;;;;15.47;13.90;;;;;;;;;;5002507;28;20213;-43
2023/12/01 03:30:34;;;;;;;38.10;28.57;;;;;;;;;;4997400;28;20547;-44
2023/12/01 03:33:00;;;;;;;39.45;28.70;;;;;;;;;;5010556;28;20906;-43
2023/12/01 03:35:26;;;;;;;18.07;15.50;;;;;;;;;;4992179;28;20176;-43
2023/12/01 03:37:56;;;;;;;19.52;17.35;;;;;;;;;;5008923;28;20431;-43
2023/12/01 03:40:23;;;;;;;33.10;27.30;;;;;;;;;;4998277;28;20675;-44
2023/12/01 03:42:49;;;;;;;56.42;33.42;;;;;;;;;;5001777;28;20203;-43
2023/12/01 03:45:16;;;;;;;96.93;48.00;;;;;;;;;;5006216;28;20724;-44
2023/12/01 03:47:43;;;;;;;53.63;32.90;;;;;;;;;;4993254;28;20280;-43
2023/12/01 03:50:13;;;;;;;66.72;37.63;;;;;;;;;;5011808;28;20333;-43
2023/12/01 03:52:40;;;;;;;61.88;38.70;;;;;;;;;;4993721;28;20255;-43
2023/12/01 03:55:06;;;;;;;34.33;30.77;;;;;;;;;;5006042;28;20176;-43
2023/12/01 03:57:32;;;;;;;12.95;11.52;;;;;;;;;;5001565;28;20239;-43
2023/12/01 03:59:58;;;;;;;12.02;10.63;;;;;;;;;;4998065;28;20187;-43
2023/12/01 04:02:24;;;;;;;28.97;26.03;;;;;;;;;;5009851;28;20168;-43
2023/12/01 04:04:50;;;;;;;18.70;16.85;;;;;;;;;;4992133;28;20417;-43
2023/12/01 04:07:16;;;;;;;19.42;17.35;;;;;;;;;;5008960;28;20206;-43
2023/12/01 04:09:42;;;;;;;58.85;37.35;;;;;;;;;;4998624;28;20271;-43
2023/12/01 04:12:09;;;;;;;37.50;33.97;;;;;;;;;;5005195;28;20176;-43
2023/12/01 04:14:35;;;;;;;31.48;28.17;;;;;;;;;;5009784;28;20175;-43
2023/12/01 04:17:08;;;;;;;20.77;18.60;;;;;;;;;;4996738;28;20169;-43
2023/12/01 04:19:35;;;;;;;48.75;35.90;;;;;;;;;;5015351;28;20391;-43
2023/12/01 04:22:02;;;;;;;64.18;33.42;;;;;;;;;;5000450;28;20663;-43
2023/12/01 04:24:28;;;;;;;13.25;11.85;;;;;;;;;;5014901;28;20227;-44
2023/12/01 04:26:54;;;;;;;23.02;17.25;;;;;;;;;;5004673;28;20565;-43
2023/12/01 04:29:20;;;;;;;87.87;41.73;;;;;;;;;;5001400;28;20192;-43
2023/12/01 04:31:46;;;;;;;91.17;42.20;;;;;;;;;;5012720;28;20451;-43
2023/12/01 04:34:12;;;;;;;95.77;43.37;;;;;;;;;;4995428;28;20395;-43
2023/12/01 04:36:38;;;;;;;67.07;40.90;;;;;;;;;;5012784;28;20460;-43
2023/12/01 04:39:04;;;;;;;97.47;42.95;;;;;;;;;;5000912;28;20424;-42
2023/12/01 04:41:30;;;;;;;120.07;45.50;;;;;;;;;;5004811;28;20181;-42
2023/12/01 04:43:56;;;;;;;114.63;45.03;;;;;;;;;;5009185;28;20412;-43
2023/12/01 04:46:22;;;;;;;117.07;45.40;;;;;;;;;;4996451;28;20392;-43
2023/12/01 04:48:48;;;;;;;114.30;44.67;;;;;;;;;;5014538;28;20453;-43
2023/12/01 04:51:16;;;;;;;122.50;44.50;;;;;;;;;;4997271;28;20959;-43
2023/12/01 04:53:42;;;;;;;121.00;46.88;;;;;;;;;;5008371;28;20758;-43
2023/12/01 04:56:08;;;;;;;110.70;42.77;;;;;;;;;;5005077;28;20184;-43
2023/12/01 04:58:34;;;;;;;119.97;46.65;;;;;;;;;;5000174;28;20431;-43
2023/12/01 05:01:00;;;;;;;123.83;46.20;;;;;;;;;;5013188;28;20596;-43
2023/12/01 05:03:26;;;;;;;103.68;46.28;;;;;;;;;;4994827;28;20905;-44
2023/12/01 05:05:53;;;;;;;101.72;42.28;;;;;;;;;;5011477;28;20176;-43
2023/12/01 05:08:20;;;;;;;104.63;41.67;;;;;;;;;;5001247;28;20630;-43
2023/12/01 05:10:46;;;;;;;108.72;42.47;;;;;;;;;;5003775;28;20549;-43
2023/12/01 05:13:14;;;;;;;124.27;43.47;;;;;;;;;;5009182;28;20180;-43
2023/12/01 05:15:40;;;;;;;134.75;48.40;;;;;;;;;;4995581;28;20404;-43
2023/12/01 05:18:07;;;;;;;137.57;53.83;;;;;;;;;;5011591;28;20298;-43
2023/12/01 05:20:33;;;;;;;136.32;46.17;;;;;;;;;;5015552;28;20411;-43
2023/12/01 05:23:00;;;;;;;123.43;45.40;;;;;;;;;;5028988;28;20660;-45
2023/12/01 05:25:27;;;;;;;134.07;49.47;;;;;;;;;;5025264;28;20171;-43
2023/12/01 05:27:54;;;;;;;135.32;47.17;;;;;;;;;;5005555;28;20591;-43
2023/12/01 05:30:21;;;;;;;118.15;44.58;;;;;;;;;;5029902;28;20253;-43
2023/12/01 05:32:48;;;;;;;100.85;42.25;;;;;;;;;;5021184;28;20656;-43
2023/12/01 05:35:15;;;;;;;114.93;43.38;;;;;;;;;;5025452;28;20707;-43
2023/12/01 05:37:48;;;;;;;107.68;43.92;;;;;;;;;;5029395;28;20276;-43
2023/12/01 05:40:21;;;;;;;104.53;43.88;;;;;;;;;;5027611;28;20173;-43
2023/12/01 05:42:48;;;;;;;94.63;42.15;;;;;;;;;;5024803;28;20180;-43
2023/12/01 05:45:15;;;;;;;100.97;41.25;;;;;;;;;;5024969;28;20183;-43
2023/12/01 05:47:44;;;;;;;126.03;47.90;;;;;;;;;;5028782;28;20237;-43
2023/12/01 05:50:12;;;;;;;122.85;44.90;;;;;;;;;;5020675;28;20268;-43
2023/12/01 05:52:38;;;;;;;132.30;46.13;;;;;;;;;;5024536;28;20170;-43
2023/12/01 05:55:10;;;;;;;135.82;45.40;;;;;;;;;;5025458;28;20200;-43
2023/12/01 05:57:36;;;;;;;135.70;47.22;;;;;;;;;;5021553;28;20614;-44
2023/12/01 06:00:02;;;;;;;134.32;45.05;;;;;;;;;;5024266;28;20183;-43
2023/12/01 06:02:28;;;;;;;126.53;45.00;;;;;;;;;;5020779;28;20255;-44
2023/12/01 06:04:57;;;;;;;123.32;43.70;;;;;;;;;;5023403;28;20180;-43
2023/12/01 06:07:23;;;;;;;132.02;45.55;;;;;;;;;;5027610;28;20192;-43
2023/12/01 06:09:49;;;;;;;133.82;46.28;;;;;;;;;;5021696;28;20176;-43
2023/12/01 06:12:15;;;;;;;128.70;45.47;;;;;;;;;;5024063;28;20178;-43
2023/12/01 06:14:41;;;;;;;125.47;46.07;;;;;;;;;;5023687;28;20489;-43
2023/12/01 06:17:07;;;;;;;124.03;44.90;;;;;;;;;;5021521;28;20398;-43
2023/12/01 06:19:33;;;;;;;134.75;47.13;;;;;;;;;;5003154;28;20165;-43
2023/12/01 06:21:59;;;;;;;117.80;43.87;;;;;;;;;;5021253;28;20236;-43
2023/12/01 06:24:26;;;;;;;108.40;42.13;;;;;;;;;;5020429;28;20415;-43
2023/12/01 06:26:52;;;;;;;125.75;45.88;;;;;;;;;;5028195;28;20423;-44
2023/12/01 06:29:19;;;;;;;128.52;45.25;;;;;;;;;;5022908;28;20244;-43
2023/12/01 06:31:45;;;;;;;139.30;47.03;;;;;;;;;;5018067;28;20212;-43
2023/12/01 06:34:11;;;;;;;134.30;46.05;;;;;;;;;;5023517;28;20222;-44
2023/12/01 06:36:37;;;;;;;137.27;50.58;;;;;;;;;;5005548;28;20202;-43
2023/12/01 06:39:10;;;;;;;100.93;43.60;;;;;;;;;;5023497;28;20271;-44
2023/12/01 06:41:36;;;;;;;113.22;42.95;;;;;;;;;;5024193;28;20415;-43
2023/12/01 06:44:02;;;;;;;109.65;42.78;;;;;;;;;;5028163;28;20180;-43
2023/12/01 06:46:28;;;;;;;124.70;45.70;;;;;;;;;;5028070;28;20185;-43
2023/12/01 06:48:54;;;;;;;118.15;46.10;;;;;;;;;;5023806;28;20479;-43
2023/12/01 06:51:20;;;;;;;101.83;43.87;;;;;;;;;;5024396;28;20294;-44
2023/12/01 06:53:46;;;;;;;125.40;46.43;;;;;;;;;;5021395;28;20423;-43
2023/12/01 06:56:12;;;;;;;128.23;47.00;;;;;;;;;;5023720;28;20398;-43
2023/12/01 06:58:38;;;;;;;117.50;46.20;;;;;;;;;;5006248;28;20426;-43
2023/12/01 07:01:04;;;;;;;132.93;45.83;;;;;;;;;;5027531;28;20247;-43
2023/12/01 07:03:30;;;;;;;115.35;44.25;;;;;;;;;;5028800;28;20572;-43
2023/12/01 07:05:56;;;;;;;128.87;46.27;;;;;;;;;;5020735;28;20172;-43
2023/12/01 07:08:22;;;;;;;138.38;47.38;;;;;;;;;;5021004;28;20473;-43
2023/12/01 07:10:48;;;;;;;117.80;44.08;;;;;;;;;;5023854;28;20553;-43
2023/12/01 07:13:16;;;;;;;119.00;44.70;;;;;;;;;;5019163;28;20179;-43
2023/12/01 07:15:42;;;;;;;118.53;46.28;;;;;;;;;;5021174;28;20399;-43
2023/12/01 07:18:09;;;;;;;119.95;46.95;;;;;;;;;;5020917;28;20220;-43
2023/12/01 07:20:35;;;;;;;120.57;45.67;;;;;;;;;;5028368;28;20651;-43
2023/12/01 07:23:01;;;;;;;93.23;42.67;;;;;;;;;;5021399;28;20191;-43
2023/12/01 07:25:27;;;;;;;46.20;35.33;;;;;;;;;;5017035;28;20443;-43
2023/12/01 07:28:00;;;;;;;61.08;39.60;;;;;;;;;;5015325;28;20200;-43
2023/12/01 07:30:29;;;;;;;76.38;40.45;;;;;;;;;;5007774;28;20196;-43
2023/12/01 07:32:56;;;;;;;55.65;37.83;;;;;;;;;;4992745;28;20215;-43
2023/12/01 07:35:21;;;;;;;36.90;26.50;;;;;;;;;;5007030;28;20176;-42
2023/12/01 07:37:48;;;;;;;19.83;17.83;;;;;;;;;;5000575;28;20256;-43
2023/12/01 07:40:21;;;;;;;40.90;30.40;;;;;;;;;;4999140;28;20412;-42
2023/12/01 07:42:51;;;;;;;20.60;18.80;;;;;;;;;;5008025;28;20184;-43
2023/12/01 07:45:17;;;;;;;54.20;38.20;;;;;;;;;;4994042;28;20180;-43
2023/12/01 07:47:47;;;;;;;59.70;39.72;;;;;;;;;;5015675;28;20278;-43
2023/12/01 07:50:14;;;;;;;70.65;40.10;;;;;;;;;;4999061;28;20204;-42
2023/12/01 07:52:41;;;;;;;41.13;33.58;;;;;;;;;;5016752;28;20176;-43
2023/12/01 07:55:09;;;;;;;42.33;30.60;;;;;;;;;;5028711;28;20178;-42
2023/12/01 07:57:35;;;;;;;69.72;40.70;;;;;;;;;;5022156;28;20195;-43
2023/12/01 08:00:01;;;;;;;66.82;39.28;;;;;;;;;;5028507;28;20198;-43
2023/12/01 08:02:27;;;;;;;51.78;36.90;;;;;;;;;;5031387;28;20168;-43
2023/12/01 08:04:53;;;;;;;57.45;40.95;;;;;;;;;;5027131;28;20225;-43
2023/12/01 08:07:19;;;;;;;63.65;41.45;;;;;;;;;;5010719;28;20262;-43
2023/12/01 08:09:45;;;;;;;80.80;41.77;;;;;;;;;;5030219;28;20633;-43
2023/12/01 08:12:11;;;;;;;84.23;42.50;;;;;;;;;;5034770;28;20898;-43
2023/12/01 08:14:37;;;;;;;113.95;45.35;;;;;;;;;;5009889;28;20966;-44
2023/12/01 08:17:03;;;;;;;125.17;45.37;;;;;;;;;;5027545;28;20172;-43
2023/12/01 08:19:30;;;;;;;34.17;28.92;;;;;;;;;;5026734;28;20410;-43
2023/12/01 08:21:55;;;;;;;22.70;20.45;;;;;;;;;;5025428;28;20171;-43
2023/12/01 08:24:22;;;;;;;18.67;16.93;;;;;;;;;;5023418;28;20177;-43
2023/12/01 08:26:48;;;;;;;58.60;37.90;;;;;;;;;;5023641;28;20469;-43
2023/12/01 08:29:14;;;;;;;34.78;28.90;;;;;;;;;;5024197;28;20675;-43
2023/12/01 08:31:40;;;;;;;45.53;33.65;;;;;;;;;;5031644;28;20288;-43
2023/12/01 08:34:10;;;;;;;62.40;40.30;;;;;;;;;;5010188;28;20253;-42
2023/12/01 08:36:35;;;;;;;64.97;40.58;;;;;;;;;;5026211;28;20171;-42
2023/12/01 08:39:02;;;;;;;73.70;41.73;;;;;;;;;;5026375;28;20202;-43
2023/12/01 08:41:28;;;;;;;80.38;41.17;;;;;;;;;;5026913;28;20415;-43
2023/12/01 08:43:54;;;;;;;61.50;40.17;;;;;;;;;;5026182;28;20177;-43
2023/12/01 08:46:20;;;;;;;74.87;43.50;;;;;;;;;;5027423;28;20555;-43
2023/12/01 08:48:46;;;;;;;82.50;44.00;;;;;;;;;;5030907;28;20492;-43
2023/12/01 08:51:12;;;;;;;92.03;43.83;;;;;;;;;;5022061;28;20469;-43
2023/12/01 08:53:38;;;;;;;110.30;43.97;;;;;;;;;;5026151;28;20410;-43
2023/12/01 08:56:04;;;;;;;120.80;45.83;;;;;;;;;;5026939;28;20398;-43
2023/12/01 08:58:30;;;;;;;133.25;46.88;;;;;;;;;;5023450;28;20625;-43
2023/12/01 09:00:56;;;;;;;128.77;46.30;;;;;;;;;;5022025;28;20187;-42
2023/12/01 09:03:22;;;;;;;131.38;46.97;;;;;;;;;;5009549;28;20927;-43
2023/12/01 09:05:48;;;;;;;120.55;45.00;;;;;;;;;;5012631;28;20189;-44
2023/12/01 09:08:15;;;;;;;118.55;45.83;;;;;;;;;;5021593;28;20187;-44
2023/12/01 09:10:41;;;;;;;115.35;44.75;;;;;;;;;;5029340;28;20199;-43
2023/12/01 09:13:08;;;;;;;115.18;45.50;;;;;;;;;;5024454;28;20701;-43
2023/12/01 09:15:34;;;;;;;107.85;47.03;;;;;;;;;;5025735;28;20252;-43
2023/12/01 09:18:00;;;;;;;119.18;45.47;;;;;;;;;;5025721;28;20184;-43
2023/12/01 09:20:26;;;;;;;83.80;40.70;;;;;;;;;;5026342;28;20555;-43
2023/12/01 09:22:52;;;;;;;45.73;31.27;;;;;;;;;;5025452;28;20285;-43
2023/12/01 09:25:18;;;;;;;49.97;37.97;;;;;;;;;;5027295;28;20403;-43
2023/12/01 09:27:44;;;;;;;60.65;40.72;;;;;;;;;;5029912;28;20438;-43
2023/12/01 09:30:13;;;;;;;84.22;44.17;;;;;;;;;;5009113;28;20446;-43
2023/12/01 09:32:40;;;;;;;32.92;29.23;;;;;;;;;;5025191;28;20191;-43
2023/12/01 09:35:06;;;;;;;20.50;18.48;;;;;;;;;;5025224;28;20878;-42
2023/12/01 09:37:32;;;;;;;50.88;34.80;;;;;;;;;;5024926;28;20215;-43
2023/12/01 09:39:58;;;;;;;24.60;21.88;;;;;;;;;;5033385;28;20170;-43
2023/12/01 09:42:24;;;;;;;44.37;35.33;;;;;;;;;;5016111;28;20180;-43
2023/12/01 09:44:54;;;;;;;76.05;42.33;;;;;;;;;;5020334;28;20816;-43
2023/12/01 09:47:21;;;;;;;74.50;41.35;;;;;;;;;;5021609;28;20196;-43
2023/12/01 09:49:49;;;;;;;70.22;41.95;;;;;;;;;;5027787;28;20727;-43
2023/12/01 09:52:15;;;;;;;101.97;46.50;;;;;;;;;;5012179;28;20165;-42
2023/12/01 09:54:41;;;;;;;114.27;47.47;;;;;;;;;;5032873;28;20168;-43
2023/12/01 09:57:07;;;;;;;90.30;41.63;;;;;;;;;;5016583;28;20494;-43
2023/12/01 09:59:36;;;;;;;67.93;40.80;;;;;;;;;;5025326;28;20270;-43
2023/12/01 10:02:03;;;;;;;121.05;46.58;;;;;;;;;;5024210;28;20481;-43
2023/12/01 10:04:29;;;;;;;128.23;46.50;;;;;;;;;;5017797;28;20179;-44
2023/12/01 10:06:57;;;;;;;140.18;52.75;;;;;;;;;;5031596;28;20175;-44
2023/12/01 10:09:27;;;;;;;129.32;46.33;;;;;;;;;;5012786;28;20624;-44
2023/12/01 10:12:23;;;;;;;128.05;46.30;;;;;;;;;;5013183;28;20196;-43
2023/12/01 10:14:49;;;;;;;135.90;50.95;;;;;;;;;;4980871;28;20284;-43
2023/12/01 10:17:15;;;;;;;133.07;51.80;;;;;;;;;;5006036;28;20650;-43
2023/12/01 10:19:45;;;;;;;131.82;46.30;;;;;;;;;;5004477;28;20412;-43
2023/12/01 10:22:16;;;;;;;133.75;46.83;;;;;;;;;;4998507;28;20183;-42
2023/12/01 10:24:52;;;;;;;131.10;46.85;;;;;;;;;;5012516;28;20203;-43
2023/12/01 10:27:19;;;;;;;132.80;49.95;;;;;;;;;;5011681;28;20744;-43
2023/12/01 10:29:47;;;;;;;131.57;49.70;;;;;;;;;;4993598;28;20579;-44
2023/12/01 10:32:13;;;;;;;136.50;51.17;;;;;;;;;;5008455;28;20575;-43
2023/12/01 10:34:40;;;;;;;137.63;51.97;;;;;;;;;;5001041;28;20173;-43
2023/12/01 10:37:07;;;;;;;134.50;50.25;;;;;;;;;;5000326;28;20171;-42
2023/12/01 10:39:33;;;;;;;136.32;50.58;;;;;;;;;;5008942;28;20243;-42
2023/12/01 10:41:59;;;;;;;135.25;48.50;;;;;;;;;;5024223;28;20205;-42
2023/12/01 10:44:26;;;;;;;148.00;52.75;;;;;;;;;;4993390;28;20177;-42
2023/12/01 10:46:53;;;;;;;148.77;54.80;;;;;;;;;;5008027;28;20179;-43
2023/12/01 10:49:20;;;;;;;146.10;53.42;;;;;;;;;;5000897;28;20550;-43
2023/12/01 10:51:46;;;;;;;143.77;53.45;;;;;;;;;;5000171;28;20214;-42
2023/12/01 10:54:14;;;;;;;141.13;53.85;;;;;;;;;;5008853;28;20212;-43
2023/12/01 10:56:43;;;;;;;141.40;50.47;;;;;;;;;;4992686;28;20578;-43
2023/12/01 10:59:09;;;;;;;139.43;50.63;;;;;;;;;;5011546;28;20192;-42
2023/12/01 11:01:36;;;;;;;139.40;49.47;;;;;;;;;;4995754;28;20177;-42
2023/12/01 11:04:06;;;;;;;137.60;52.45;;;;;;;;;;5004334;28;20234;-42
2023/12/01 11:06:41;;;;;;;146.27;53.00;;;;;;;;;;5003674;28;20185;-42
2023/12/01 11:09:14;;;;;;;145.90;51.90;;;;;;;;;;4998035;28;20342;-43
2023/12/01 11:11:40;;;;;;;147.15;53.45;;;;;;;;;;5009674;28;20251;-44
2023/12/01 11:14:16;;;;;;;143.43;53.07;;;;;;;;;;4992702;28;20663;-43
2023/12/01 11:16:42;;;;;;;132.35;51.10;;;;;;;;;;5011468;28;20457;-42
2023/12/01 11:19:08;;;;;;;152.57;54.08;;;;;;;;;;4995999;28;20197;-43
2023/12/01 11:21:34;;;;;;;146.73;54.20;;;;;;;;;;5003400;28;20180;-43
2023/12/01 11:24:19;;;;;;;141.68;53.33;;;;;;;;;;5011628;28;20537;-43
2023/12/01 11:26:48;;;;;;;113.22;50.50;;;;;;;;;;5005958;28;20311;-43
2023/12/01 11:29:33;;;;;;;59.03;43.80;;;;;;;;;;4994125;28;20577;-43
2023/12/01 11:31:59;;;;;;;128.65;50.05;;;;;;;;;;5011223;28;20270;-42
2023/12/01 11:34:26;;;;;;;122.78;49.70;;;;;;;;;;4992395;28;20173;-43
2023/12/01 11:36:56;;;;;;;140.38;50.95;;;;;;;;;;5008322;28;20168;-43
2023/12/01 11:39:31;;;;;;;144.13;52.08;;;;;;;;;;4998770;28;20165;-43
2023/12/01 11:41:57;;;;;;;126.95;49.42;;;;;;;;;;5002236;28;20198;-43
2023/12/01 11:44:27;;;;;;;40.17;36.43;;;;;;;;;;5005780;28;20512;-44
2023/12/01 11:46:55;;;;;;;49.70;44.40;;;;;;;;;;4994299;28;20470;-43
2023/12/01 11:49:22;;;;;;;16.52;14.93;;;;;;;;;;5011834;28;20523;-42
2023/12/01 11:51:49;;;;;;;18.80;17.20;;;;;;;;;;4992967;28;20277;-44
2023/12/01 11:54:15;;;;;;;18.27;16.67;;;;;;;;;;5006641;28;20520;-42
2023/12/01 11:56:46;;;;;;;13.68;12.30;;;;;;;;;;5000916;28;20172;-43
2023/12/01 11:59:12;;;;;;;19.88;16.85;;;;;;;;;;4999122;28;20260;-42
2023/12/01 12:01:38;;;;;;;55.43;39.33;;;;;;;;;;5008476;28;20204;-43
2023/12/01 12:04:05;;;;;;;67.27;44.77;;;;;;;;;;4991920;28;20467;-43
2023/12/01 12:06:34;;;;;;;64.55;39.55;;;;;;;;;;5009108;28;20458;-42
2023/12/01 12:09:06;;;;;;;56.60;39.42;;;;;;;;;;4995268;28;20211;-43
2023/12/01 12:11:36;;;;;;;76.20;43.33;;;;;;;;;;5004452;28;20195;-43
2023/12/01 12:14:03;;;;;;;62.92;40.33;;;;;;;;;;5002985;28;20169;-43
2023/12/01 12:16:29;;;;;;;28.35;25.15;;;;;;;;;;4996267;28;20196;-43
2023/12/01 12:18:59;;;;;;;46.08;33.28;;;;;;;;;;5011135;28;20200;-43
2023/12/01 12:21:25;;;;;;;55.05;37.38;;;;;;;;;;4992022;28;20173;-43
2023/12/01 12:23:51;;;;;;;48.33;33.83;;;;;;;;;;5009954;28;20227;-43
2023/12/01 12:26:20;;;;;;;60.95;40.40;;;;;;;;;;4998395;28;20602;-43
2023/12/01 12:28:47;;;;;;;35.33;29.48;;;;;;;;;;4994109;28;20219;-43
2023/12/01 12:31:14;;;;;;;60.35;41.10;;;;;;;;;;5006576;28;20300;-44
2023/12/01 12:33:40;;;;;;;30.20;26.10;;;;;;;;;;4994625;28;20169;-44
2023/12/01 12:36:06;;;;;;;25.92;22.92;;;;;;;;;;5014237;28;20164;-44
2023/12/01 12:38:33;;;;;;;68.25;43.50;;;;;;;;;;4997255;28;20193;-43
2023/12/01 12:41:00;;;;;;;59.05;45.65;;;;;;;;;;5006961;28;20554;-42
2023/12/01 12:43:26;;;;;;;43.20;32.88;;;;;;;;;;5005855;28;20173;-43
2023/12/01 12:45:53;;;;;;;47.10;34.85;;;;;;;;;;4999785;28;20173;-43
2023/12/01 12:48:24;;;;;;;55.60;35.30;;;;;;;;;;5013485;28;20587;-43
2023/12/01 12:50:50;;;;;;;89.40;51.03;;;;;;;;;;4995213;28;20691;-42
2023/12/01 12:53:16;;;;;;;67.07;41.90;;;;;;;;;;5012583;28;20304;-43
2023/12/01 12:55:42;;;;;;;78.03;44.43;;;;;;;;;;5001027;28;20416;-44
2023/12/01 12:58:08;;;;;;;71.90;42.97;;;;;;;;;;5004168;28;20505;-43
2023/12/01 13:00:34;;;;;;;76.68;46.17;;;;;;;;;;5009039;28;20413;-43
2023/12/01 13:03:00;;;;;;;64.22;41.78;;;;;;;;;;4996033;28;20185;-43
2023/12/01 13:05:26;;;;;;;67.93;58.00;;;;;;;;;;5014272;28;20176;-43
2023/12/01 13:07:53;;;;;;;65.45;43.90;;;;;;;;;;4997267;28;20863;-44
2023/12/01 13:10:19;;;;;;;60.42;42.28;;;;;;;;;;5007612;28;20200;-44
2023/12/01 13:12:45;;;;;;;67.30;42.03;;;;;;;;;;5005339;28;20169;-43
2023/12/01 13:15:12;;;;;;;66.67;41.03;;;;;;;;;;4999315;28;20557;-42
2023/12/01 13:20:07;;;;;;;80.78;43.22;;;;;;;;;;5046664;28;20206;-44
2023/12/01 13:22:33;;;;;;;84.55;42.65;;;;;;;;;;5063976;28;20174;-44
2023/12/01 13:24:59;;;;;;;80.17;44.00;;;;;;;;;;5059720;28;20254;-44
2023/12/01 13:27:25;;;;;;;71.47;41.40;;;;;;;;;;5053083;28;20416;-44
2023/12/01 13:29:51;;;;;;;85.87;48.60;;;;;;;;;;5029125;28;20485;-44
2023/12/01 13:32:17;;;;;;;84.07;43.80;;;;;;;;;;5014643;28;20535;-44
2023/12/01 13:34:43;;;;;;;111.03;53.60;;;;;;;;;;5033628;28;20486;-44
2023/12/01 13:37:09;;;;;;;101.83;55.30;;;;;;;;;;5019445;28;20418;-44
2023/12/01 13:39:35;;;;;;;92.37;47.17;;;;;;;;;;5032992;28;20479;-44
2023/12/01 13:42:01;;;;;;;100.13;49.30;;;;;;;;;;5024522;28;20937;-44
2023/12/01 13:44:27;;;;;;;79.70;46.53;;;;;;;;;;5017510;28;20179;-44
2023/12/01 13:46:53;;;;;;;51.63;42.17;;;;;;;;;;5033173;28;20788;-44
2023/12/01 13:49:19;;;;;;;23.23;19.57;;;;;;;;;;5013414;28;20766;-44
2023/12/01 13:51:46;;;;;;;87.97;43.77;;;;;;;;;;5029588;28;20899;-44
2023/12/01 13:54:12;;;;;;;92.85;44.50;;;;;;;;;;5021126;28;20510;-44
2023/12/01 13:56:38;;;;;;;56.33;50.38;;;;;;;;;;5021252;28;20201;-44
2023/12/01 13:59:04;;;;;;;89.95;68.80;;;;;;;;;;5029042;28;20192;-44
2023/12/01 14:01:30;;;;;;;55.63;46.75;;;;;;;;;;5013555;28;20164;-44
2023/12/01 14:03:56;;;;;;;86.10;49.60;;;;;;;;;;5032991;28;20171;-44
2023/12/01 14:06:22;;;;;;;61.63;39.20;;;;;;;;;;5017098;28;20601;-44
2023/12/01 14:08:48;;;;;;;20.10;18.23;;;;;;;;;;5024217;28;20450;-43
2023/12/01 14:11:14;;;;;;;45.63;40.78;;;;;;;;;;5030675;28;20458;-44